Bronaugh, MO (64728)

4:54 AM CDT on May 06, 2015 (GMT -0500)
Irwin, MO | | Change Station
CLOSE
Current Station
Personal Weather Station
Location: Lamar, MO
Elevation: 955 ft
Nearby Weather Stations

Elev 955 ft 37.60 °N, 94.29 °W | Updated 10 minutes ago

Mostly Cloudy
Mostly Cloudy
67.5 °F
Feels Like 67.5 °F
N
9.0
Wind Variable Wind from South
Gusts 17.0 mph

Today
High -- | Low -- °F
--% Chance of Precip.
Yesterday
High -- | Low -- °F
Precip. -- in
6:17 AM 8:12 PM
Waning Gibbous, 95% visible
Pressure 29.96 in
Visibility 10.0 miles
Clouds Scattered Clouds 8000 ft
Scattered Clouds 10000 ft
Scattered Clouds 12000 ft
Dew Point 58 °F
Humidity 72%
Rainfall 0.00 in
Snow Depth Not available.
UV 0 out of 12
Pollen 10.70 out of 12
Air Quality Not available.
Flu Activity Sporadic
METAR KPTS 060935Z AUTO 16008KT 10SM SCT080 SCT100 SCT120 22/14 A2996 RMK AO2 T02170144

More Conditions Fewer Conditions

Pressure 29.96 in
Visibility 10.0 miles
Clouds Scattered Clouds 8000 ft
Scattered Clouds 10000 ft
Scattered Clouds 12000 ft
Dew Point 58 °F
Humidity 72%
Rainfall 0.00 in
Snow Depth Not available.
UV 0 out of 12
Pollen 10.70 out of 12
Air Quality Not available.
Flu Activity Sporadic
METAR KPTS 060935Z AUTO 16008KT 10SM SCT080 SCT100 SCT120 22/14 A2996 RMK AO2 T02170144

More Conditions Fewer Conditions

10-Day Weather Forecast

Almanac

Astronomy

May. 06, 2015 Rise Set
Actual Time
Civil Twilight
Nautical Twilight
Astronomical Twilight
Moon
Length of Visible Light
Length of Day
Tomorrow will be .
, % of the Moon is Illuminated

Today's Extremes

State Highs State Lows

Community

WunderPhotos

Upload Photos

1,818,859 photos uploaded!

WunderBlogs® & News

Nearby

Air Quality

  Air Quality AQ Index Pollutant
Not available.

Snow Depth

Station Depth Elevation

Earthquake Activity

City Distance Mag. Time & Date
Minimum magnitude displayed is 2.5.

Coastal Water Temperatures

Place Temperature

Stations

Nearby Weather Stations

Station Location Temp. Windchill Dew Point Humidity Wind Precip. Elev Updated Type